East Vestal, New York
Current Conditions -  °F | °C
As of 4:53 PM on Wednesday 22 Oct 2014 (Local Time) from KBGM Reporting Station
Light Rain Light Rain  
Wind Chill:   Ceiling: 800
Heat Index:   Visibility: 4mi
Dew Point:   Wind: 15mph
Humidity: 93%   Direction: 350°N
Pressure: 30.03"   Gusts: NA
Location:  42.0523°N, 75.9029°W
Report Text: KBGM 222053Z 35013KT 4SM -RA BR OVC008 08/07 A3003 RMK AO2 RAB30 SLP176 P0000 60000 T00830072 56005
Loading
Personal Weather Stations






























Interactive Weather Map
Tropical Storm Tracking
New forecast layout! Learn more

10-Day Weather Forecast

Advertisements
Track Severe Weather on mobile